UAL1157 PHNL-KLAX
Flight info
| Callsign | UAL1157 |
|---|---|
| Flight time | N/A |
| Altitude | 39000 |
| Route | MKK5 CODDY FITES R578 FIZEL 2755N12800W FOOTS R578 FICKY GOATZ2 |
| Aircraft | B772/H-SDE2E3FGHIJ5LORVWXY/LB1D1 |
Departure
| Time | N/A |
|---|---|
| Airport | Daniel K. Inouye International Airport (PHNL) |
Arrival
| Time | 2026-04-21 23:04 |
|---|---|
| Airport | Los Angeles International Airport (KLAX) |
| Time | Latitude | Longitude | Altitude | Speed | Heading |
|---|---|---|---|---|---|
| 2026-04-21 19:16 | 22.14182 | -150.19028 | 39123 ft | 474 kts | 61° |
| 2026-04-21 19:17 | 22.17118 | -150.12642 | 39122 ft | 478 kts | 62° |
| 2026-04-21 19:17 | 22.20087 | -150.06176 | 39127 ft | 484 kts | 62° |
| 2026-04-21 19:18 | 22.23084 | -149.99636 | 39125 ft | 488 kts | 62° |
| 2026-04-21 19:18 | 22.26094 | -149.93056 | 39137 ft | 490 kts | 62° |
| 2026-04-21 19:19 | 22.29111 | -149.86454 | 39116 ft | 491 kts | 63° |
| 2026-04-21 19:19 | 22.32137 | -149.79824 | 39141 ft | 493 kts | 63° |
| 2026-04-21 19:20 | 22.35169 | -149.73171 | 39122 ft | 494 kts | 63° |
| 2026-04-21 19:20 | 22.38206 | -149.66499 | 39130 ft | 495 kts | 63° |
| 2026-04-21 19:21 | 22.41241 | -149.59823 | 39124 ft | 495 kts | 63° |
| 2026-04-21 19:21 | 22.44281 | -149.53128 | 39132 ft | 498 kts | 63° |
| 2026-04-21 19:22 | 22.47334 | -149.46391 | 39148 ft | 500 kts | 63° |
| 2026-04-21 19:22 | 22.50389 | -149.39645 | 39127 ft | 499 kts | 63° |
| 2026-04-21 19:23 | 22.53435 | -149.32909 | 39129 ft | 498 kts | 63° |
| 2026-04-21 19:23 | 22.56472 | -149.26181 | 39127 ft | 498 kts | 63° |
| 2026-04-21 19:24 | 22.59514 | -149.19435 | 39134 ft | 500 kts | 63° |
| 2026-04-21 19:24 | 22.62564 | -149.12664 | 39145 ft | 501 kts | 63° |
| 2026-04-21 19:25 | 22.65619 | -149.05869 | 39150 ft | 503 kts | 63° |
| 2026-04-21 19:25 | 22.68678 | -148.99060 | 39142 ft | 503 kts | 63° |
| 2026-04-21 19:26 | 22.71739 | -148.92232 | 39137 ft | 505 kts | 63° |
| 2026-04-21 19:26 | 22.74785 | -148.85428 | 39144 ft | 506 kts | 63° |
| 2026-04-21 19:27 | 22.77856 | -148.78559 | 39145 ft | 507 kts | 63° |
| 2026-04-21 19:27 | 22.80926 | -148.71686 | 39146 ft | 507 kts | 63° |
| 2026-04-21 19:28 | 22.83991 | -148.64812 | 39134 ft | 506 kts | 63° |
| 2026-04-21 19:28 | 22.87033 | -148.57977 | 39132 ft | 497 kts | 63° |
| 2026-04-21 19:29 | 22.90014 | -148.51270 | 39159 ft | 493 kts | 63° |
| 2026-04-21 19:29 | 22.92995 | -148.44561 | 39139 ft | 496 kts | 63° |
| 2026-04-21 19:30 | 22.96003 | -148.37781 | 39161 ft | 501 kts | 63° |
| 2026-04-21 19:30 | 22.99038 | -148.30927 | 39158 ft | 505 kts | 63° |
| 2026-04-21 19:31 | 23.02083 | -148.24041 | 39153 ft | 507 kts | 63° |
| 2026-04-21 19:31 | 23.05108 | -148.17185 | 39136 ft | 499 kts | 63° |
| 2026-04-21 19:32 | 23.08098 | -148.10403 | 39160 ft | 498 kts | 63° |
| 2026-04-21 19:32 | 23.11090 | -148.03609 | 39148 ft | 499 kts | 63° |
| 2026-04-21 19:33 | 23.14086 | -147.96797 | 39154 ft | 500 kts | 63° |
| 2026-04-21 19:33 | 23.17082 | -147.89974 | 39139 ft | 502 kts | 64° |
| 2026-04-21 19:34 | 23.20105 | -147.83078 | 39160 ft | 508 kts | 64° |
| 2026-04-21 19:34 | 23.23151 | -147.76121 | 39150 ft | 508 kts | 63° |
| 2026-04-21 19:35 | 23.27655 | -147.65809 | 39146 ft | 500 kts | 63° |
| 2026-04-21 19:36 | 23.30649 | -147.58947 | 39159 ft | 505 kts | 64° |
| 2026-04-21 19:36 | 23.33674 | -147.52004 | 39163 ft | 510 kts | 64° |
| 2026-04-21 19:37 | 23.36700 | -147.45046 | 39163 ft | 513 kts | 64° |
| 2026-04-21 19:37 | 23.39749 | -147.38024 | 39178 ft | 510 kts | 64° |
| 2026-04-21 19:38 | 23.42763 | -147.31073 | 39164 ft | 508 kts | 64° |
| 2026-04-21 19:38 | 23.45298 | -147.25221 | 39156 ft | 511 kts | 64° |
| 2026-04-21 19:39 | 23.48830 | -147.17052 | 39158 ft | 514 kts | 64° |
| 2026-04-21 19:39 | 23.51873 | -147.10004 | 39142 ft | 515 kts | 65° |
| 2026-04-21 19:40 | 23.54922 | -147.02929 | 39164 ft | 517 kts | 65° |
| 2026-04-21 19:40 | 23.57983 | -146.95815 | 39170 ft | 518 kts | 65° |
| 2026-04-21 19:41 | 23.61033 | -146.88718 | 39158 ft | 516 kts | 65° |
| 2026-04-21 19:41 | 23.64064 | -146.81656 | 39137 ft | 514 kts | 65° |
| 2026-04-21 19:42 | 23.67087 | -146.74601 | 39169 ft | 514 kts | 65° |
| 2026-04-21 19:42 | 23.70112 | -146.67528 | 39165 ft | 514 kts | 65° |
| 2026-04-21 19:43 | 23.73136 | -146.60448 | 39163 ft | 515 kts | 65° |
| 2026-04-21 19:43 | 23.76158 | -146.53361 | 39151 ft | 516 kts | 66° |
| 2026-04-21 19:44 | 23.79185 | -146.46254 | 39175 ft | 517 kts | 66° |
| 2026-04-21 19:44 | 23.82194 | -146.39178 | 39170 ft | 518 kts | 66° |
| 2026-04-21 19:45 | 23.85227 | -146.32033 | 39168 ft | 519 kts | 66° |
| 2026-04-21 19:45 | 23.88266 | -146.24864 | 39170 ft | 522 kts | 66° |
| 2026-04-21 19:46 | 23.91321 | -146.17641 | 39192 ft | 524 kts | 66° |
| 2026-04-21 19:46 | 23.94379 | -146.10405 | 39169 ft | 524 kts | 66° |
| 2026-04-21 19:47 | 23.97425 | -146.03186 | 39164 ft | 522 kts | 66° |
| 2026-04-21 19:47 | 23.99967 | -145.97150 | 39172 ft | 521 kts | 66° |
| 2026-04-21 19:48 | 24.02987 | -145.89971 | 39169 ft | 519 kts | 66° |
| 2026-04-21 19:48 | 24.05977 | -145.82851 | 39166 ft | 518 kts | 66° |
| 2026-04-21 19:49 | 24.08977 | -145.75698 | 39143 ft | 517 kts | 67° |
| 2026-04-21 19:49 | 24.11979 | -145.68527 | 39173 ft | 519 kts | 67° |
| 2026-04-21 19:50 | 24.14992 | -145.61314 | 39172 ft | 522 kts | 67° |
| 2026-04-21 19:50 | 24.18020 | -145.54058 | 39174 ft | 525 kts | 67° |
| 2026-04-21 19:51 | 24.21062 | -145.46758 | 39160 ft | 529 kts | 67° |
| 2026-04-21 19:51 | 24.24117 | -145.39413 | 39183 ft | 530 kts | 67° |
| 2026-04-21 19:52 | 24.27174 | -145.32053 | 39169 ft | 531 kts | 67° |
| 2026-04-21 19:52 | 24.30225 | -145.24695 | 39150 ft | 530 kts | 68° |
| 2026-04-21 19:53 | 24.33272 | -145.17333 | 39164 ft | 531 kts | 68° |
| 2026-04-21 19:53 | 24.36318 | -145.09960 | 39171 ft | 531 kts | 68° |
| 2026-04-21 19:54 | 24.39362 | -145.02578 | 39190 ft | 531 kts | 68° |
| 2026-04-21 19:54 | 24.42408 | -144.95187 | 39162 ft | 532 kts | 68° |
| 2026-04-21 19:55 | 24.45458 | -144.87789 | 39174 ft | 532 kts | 68° |
| 2026-04-21 19:55 | 24.48508 | -144.80380 | 39170 ft | 533 kts | 68° |
| 2026-04-21 19:56 | 24.51536 | -144.73009 | 39154 ft | 534 kts | 69° |
| 2026-04-21 19:56 | 24.54587 | -144.65564 | 39168 ft | 535 kts | 69° |
| 2026-04-21 19:57 | 24.57639 | -144.58104 | 39181 ft | 536 kts | 69° |
| 2026-04-21 19:57 | 24.60693 | -144.50628 | 39170 ft | 536 kts | 69° |
| 2026-04-21 19:58 | 24.63745 | -144.43147 | 39166 ft | 537 kts | 69° |
| 2026-04-21 19:58 | 24.66797 | -144.35652 | 39175 ft | 537 kts | 69° |
| 2026-04-21 19:59 | 24.69847 | -144.28147 | 39177 ft | 538 kts | 69° |
| 2026-04-21 19:59 | 24.72895 | -144.20635 | 39166 ft | 538 kts | 69° |
| 2026-04-21 20:00 | 24.75943 | -144.13112 | 39176 ft | 538 kts | 69° |
| 2026-04-21 20:00 | 24.78988 | -144.05581 | 39181 ft | 539 kts | 69° |
| 2026-04-21 20:01 | 24.82033 | -143.98038 | 39164 ft | 539 kts | 69° |
| 2026-04-21 20:01 | 24.85077 | -143.90485 | 39179 ft | 540 kts | 69° |
| 2026-04-21 20:02 | 24.88120 | -143.82920 | 39192 ft | 541 kts | 69° |
| 2026-04-21 20:02 | 24.91162 | -143.75345 | 39183 ft | 541 kts | 69° |
| 2026-04-21 20:03 | 24.94202 | -143.67764 | 39173 ft | 541 kts | 69° |
| 2026-04-21 20:03 | 24.97217 | -143.60228 | 39182 ft | 542 kts | 70° |
| 2026-04-21 20:04 | 25.00254 | -143.52625 | 39182 ft | 542 kts | 70° |
| 2026-04-21 20:04 | 25.03288 | -143.45016 | 39182 ft | 542 kts | 69° |
| 2026-04-21 20:05 | 25.06314 | -143.37417 | 39179 ft | 541 kts | 69° |
| 2026-04-21 20:05 | 25.09331 | -143.29825 | 39184 ft | 540 kts | 69° |
| 2026-04-21 20:06 | 25.12337 | -143.22245 | 39171 ft | 539 kts | 70° |
| 2026-04-21 20:06 | 25.15339 | -143.14662 | 39202 ft | 539 kts | 69° |
| 2026-04-21 20:07 | 25.18337 | -143.07075 | 39184 ft | 539 kts | 69° |
| 2026-04-21 20:07 | 25.21331 | -142.99489 | 39172 ft | 539 kts | 70° |
| 2026-04-21 20:08 | 25.24324 | -142.91891 | 39193 ft | 540 kts | 70° |
| 2026-04-21 20:08 | 25.27314 | -142.84282 | 39194 ft | 541 kts | 70° |
| 2026-04-21 20:09 | 25.30308 | -142.76652 | 39212 ft | 541 kts | 69° |
| 2026-04-21 20:09 | 25.33300 | -142.69012 | 39194 ft | 542 kts | 70° |
| 2026-04-21 20:10 | 25.36295 | -142.61355 | 39192 ft | 543 kts | 70° |
| 2026-04-21 20:10 | 25.39289 | -142.53683 | 39193 ft | 544 kts | 70° |
| 2026-04-21 20:11 | 25.42286 | -142.45995 | 39189 ft | 545 kts | 70° |
| 2026-04-21 20:11 | 25.45281 | -142.38286 | 39209 ft | 546 kts | 70° |
| 2026-04-21 20:12 | 25.48281 | -142.30559 | 39199 ft | 547 kts | 70° |
| 2026-04-21 20:12 | 25.51280 | -142.22819 | 39185 ft | 547 kts | 70° |
| 2026-04-21 20:13 | 25.54278 | -142.15066 | 39195 ft | 548 kts | 70° |
| 2026-04-21 20:13 | 25.57280 | -142.07290 | 39191 ft | 550 kts | 70° |
| 2026-04-21 20:14 | 25.60283 | -141.99496 | 39183 ft | 551 kts | 70° |
| 2026-04-21 20:14 | 25.63266 | -141.91739 | 39193 ft | 551 kts | 70° |
| 2026-04-21 20:15 | 25.66270 | -141.83911 | 39196 ft | 552 kts | 70° |
| 2026-04-21 20:15 | 25.69277 | -141.76068 | 39179 ft | 553 kts | 71° |
| 2026-04-21 20:16 | 25.72281 | -141.68206 | 39208 ft | 554 kts | 70° |
| 2026-04-21 20:16 | 25.75284 | -141.60335 | 39197 ft | 554 kts | 70° |
| 2026-04-21 20:17 | 25.78288 | -141.52451 | 39178 ft | 555 kts | 71° |
| 2026-04-21 20:17 | 25.81288 | -141.44562 | 39193 ft | 555 kts | 71° |
| 2026-04-21 20:18 | 25.83778 | -141.37999 | 39197 ft | 555 kts | 71° |
| 2026-04-21 20:18 | 25.87280 | -141.28754 | 39185 ft | 556 kts | 71° |
| 2026-04-21 20:19 | 25.90274 | -141.20833 | 39202 ft | 556 kts | 71° |
| 2026-04-21 20:19 | 25.93264 | -141.12906 | 39197 ft | 557 kts | 71° |
| 2026-04-21 20:20 | 25.96255 | -141.04963 | 39191 ft | 557 kts | 71° |
| 2026-04-21 20:20 | 25.99240 | -140.97017 | 39205 ft | 557 kts | 71° |
| 2026-04-21 20:21 | 26.02222 | -140.89067 | 39192 ft | 557 kts | 71° |
| 2026-04-21 20:21 | 26.05202 | -140.81111 | 39187 ft | 557 kts | 71° |
| 2026-04-21 20:22 | 26.08173 | -140.73155 | 39198 ft | 557 kts | 71° |
| 2026-04-21 20:22 | 26.12623 | -140.61206 | 39191 ft | 558 kts | 71° |
| 2026-04-21 20:23 | 26.15593 | -140.53218 | 39199 ft | 559 kts | 71° |
| 2026-04-21 20:23 | 26.18563 | -140.45214 | 39197 ft | 560 kts | 71° |
| 2026-04-21 20:24 | 26.21532 | -140.37192 | 39190 ft | 561 kts | 71° |
| 2026-04-21 20:24 | 26.24504 | -140.29151 | 39205 ft | 562 kts | 71° |
| 2026-04-21 20:25 | 26.27478 | -140.21085 | 39198 ft | 563 kts | 71° |
| 2026-04-21 20:25 | 26.30431 | -140.13057 | 39189 ft | 564 kts | 71° |
| 2026-04-21 20:26 | 26.33404 | -140.04963 | 39200 ft | 564 kts | 71° |
| 2026-04-21 20:26 | 26.36375 | -139.96860 | 39192 ft | 565 kts | 71° |
| 2026-04-21 20:27 | 26.39343 | -139.88741 | 39193 ft | 566 kts | 71° |
| 2026-04-21 20:27 | 26.42311 | -139.80612 | 39197 ft | 566 kts | 71° |
| 2026-04-21 20:28 | 26.45276 | -139.72471 | 39187 ft | 566 kts | 71° |
| 2026-04-21 20:28 | 26.48237 | -139.64324 | 39209 ft | 567 kts | 70° |
| 2026-04-21 20:29 | 26.51198 | -139.56161 | 39197 ft | 567 kts | 71° |
| 2026-04-21 20:29 | 26.54155 | -139.47993 | 39190 ft | 567 kts | 70° |
| 2026-04-21 20:30 | 26.57108 | -139.39819 | 39203 ft | 567 kts | 70° |
| 2026-04-21 20:30 | 26.60056 | -139.31638 | 39213 ft | 568 kts | 70° |
| 2026-04-21 20:31 | 26.63001 | -139.23452 | 39194 ft | 568 kts | 70° |
| 2026-04-21 20:31 | 26.65941 | -139.15261 | 39201 ft | 568 kts | 70° |
| 2026-04-21 20:32 | 26.68877 | -139.07063 | 39184 ft | 568 kts | 70° |
| 2026-04-21 20:32 | 26.71807 | -138.98865 | 39212 ft | 568 kts | 70° |
| 2026-04-21 20:33 | 26.74733 | -138.90662 | 39198 ft | 568 kts | 70° |
| 2026-04-21 20:33 | 26.77657 | -138.82446 | 39198 ft | 568 kts | 70° |
| 2026-04-21 20:34 | 26.80574 | -138.74233 | 39198 ft | 568 kts | 70° |
| 2026-04-21 20:34 | 26.83487 | -138.66013 | 39197 ft | 568 kts | 70° |
| 2026-04-21 20:35 | 26.85903 | -138.59181 | 39193 ft | 568 kts | 70° |
| 2026-04-21 20:35 | 26.88805 | -138.50958 | 39201 ft | 568 kts | 70° |
| 2026-04-21 20:36 | 26.91704 | -138.42729 | 39185 ft | 568 kts | 70° |
| 2026-04-21 20:36 | 26.94596 | -138.34497 | 39212 ft | 568 kts | 70° |
| 2026-04-21 20:37 | 26.97486 | -138.26260 | 39200 ft | 568 kts | 70° |
| 2026-04-21 20:37 | 26.99856 | -138.17851 | 39194 ft | 564 kts | 81° |
| 2026-04-21 20:38 | 27.01054 | -138.09211 | 39208 ft | 560 kts | 87° |
| 2026-04-21 20:38 | 27.02059 | -138.00609 | 39190 ft | 560 kts | 86° |
| 2026-04-21 20:39 | 27.03113 | -137.91888 | 39209 ft | 561 kts | 86° |
| 2026-04-21 20:39 | 27.04195 | -137.83214 | 39204 ft | 562 kts | 86° |
| 2026-04-21 20:40 | 27.05284 | -137.74530 | 39198 ft | 562 kts | 86° |
| 2026-04-21 20:40 | 27.06360 | -137.65899 | 39206 ft | 563 kts | 86° |
| 2026-04-21 20:41 | 27.07434 | -137.57198 | 39189 ft | 563 kts | 86° |
| 2026-04-21 20:41 | 27.08502 | -137.48495 | 39217 ft | 563 kts | 86° |
| 2026-04-21 20:42 | 27.09565 | -137.39786 | 39204 ft | 564 kts | 86° |
| 2026-04-21 20:42 | 27.10623 | -137.31069 | 39198 ft | 563 kts | 86° |
| 2026-04-21 20:43 | 27.11676 | -137.22359 | 39208 ft | 563 kts | 86° |
| 2026-04-21 20:43 | 27.12723 | -137.13647 | 39192 ft | 563 kts | 86° |
| 2026-04-21 20:44 | 27.13763 | -137.04944 | 39226 ft | 563 kts | 86° |
| 2026-04-21 20:44 | 27.14799 | -136.96230 | 39204 ft | 563 kts | 86° |
| 2026-04-21 20:45 | 27.15829 | -136.87518 | 39205 ft | 563 kts | 86° |
| 2026-04-21 20:45 | 27.16855 | -136.78797 | 39209 ft | 563 kts | 86° |
| 2026-04-21 20:46 | 27.17875 | -136.70077 | 39210 ft | 563 kts | 86° |
| 2026-04-21 20:46 | 27.18890 | -136.61356 | 39236 ft | 563 kts | 86° |
| 2026-04-21 20:47 | 27.19901 | -136.52617 | 39200 ft | 564 kts | 86° |
| 2026-04-21 20:47 | 27.20906 | -136.43882 | 39210 ft | 564 kts | 86° |
| 2026-04-21 20:48 | 27.21907 | -136.35134 | 39191 ft | 564 kts | 86° |
| 2026-04-21 20:48 | 27.22902 | -136.26389 | 39202 ft | 564 kts | 86° |
| 2026-04-21 20:49 | 27.23884 | -136.17708 | 39225 ft | 564 kts | 86° |
| 2026-04-21 20:49 | 27.24868 | -136.08962 | 39205 ft | 564 kts | 86° |
| 2026-04-21 20:50 | 27.25847 | -136.00210 | 39206 ft | 565 kts | 86° |
| 2026-04-21 20:50 | 27.26821 | -135.91452 | 39200 ft | 564 kts | 86° |
| 2026-04-21 20:51 | 27.27789 | -135.82702 | 39209 ft | 564 kts | 86° |
| 2026-04-21 20:51 | 27.28751 | -135.73949 | 39215 ft | 564 kts | 86° |
| 2026-04-21 20:52 | 27.29708 | -135.65189 | 39210 ft | 565 kts | 86° |
| 2026-04-21 20:52 | 27.30660 | -135.56430 | 39192 ft | 565 kts | 86° |
| 2026-04-21 20:53 | 27.31606 | -135.47671 | 39204 ft | 564 kts | 86° |
| 2026-04-21 20:53 | 27.32546 | -135.38913 | 39207 ft | 564 kts | 86° |
| 2026-04-21 20:54 | 27.33481 | -135.30157 | 39218 ft | 564 kts | 86° |
| 2026-04-21 20:54 | 27.34410 | -135.21390 | 39212 ft | 565 kts | 86° |
| 2026-04-21 20:55 | 27.35336 | -135.12616 | 39203 ft | 565 kts | 86° |
| 2026-04-21 20:55 | 27.36255 | -135.03848 | 39208 ft | 564 kts | 86° |
| 2026-04-21 20:56 | 27.37168 | -134.95080 | 39208 ft | 564 kts | 86° |
| 2026-04-21 20:56 | 27.38076 | -134.86312 | 39208 ft | 564 kts | 86° |
| 2026-04-21 20:57 | 27.38978 | -134.77541 | 39210 ft | 564 kts | 86° |
| 2026-04-21 20:57 | 27.39874 | -134.68772 | 39209 ft | 564 kts | 86° |
| 2026-04-21 20:58 | 27.40765 | -134.60002 | 39206 ft | 564 kts | 86° |
| 2026-04-21 20:58 | 27.41651 | -134.51233 | 39207 ft | 564 kts | 86° |
| 2026-04-21 20:59 | 27.42530 | -134.42463 | 39202 ft | 564 kts | 86° |
| 2026-04-21 20:59 | 27.43405 | -134.33688 | 39205 ft | 564 kts | 86° |
| 2026-04-21 21:00 | 27.44269 | -134.24962 | 39204 ft | 565 kts | 86° |
| 2026-04-21 21:00 | 27.45133 | -134.16173 | 39204 ft | 565 kts | 86° |
| 2026-04-21 21:01 | 27.45993 | -134.07383 | 39202 ft | 565 kts | 86° |
| 2026-04-21 21:01 | 27.46844 | -133.98632 | 39189 ft | 556 kts | 86° |
| 2026-04-21 21:02 | 27.47674 | -133.90060 | 39188 ft | 545 kts | 86° |
| 2026-04-21 21:02 | 27.48482 | -133.81638 | 39196 ft | 539 kts | 86° |
| 2026-04-21 21:03 | 27.49279 | -133.73231 | 39206 ft | 541 kts | 86° |
| 2026-04-21 21:03 | 27.50076 | -133.64798 | 39203 ft | 542 kts | 86° |
| 2026-04-21 21:04 | 27.50869 | -133.56354 | 39206 ft | 543 kts | 86° |
| 2026-04-21 21:04 | 27.51659 | -133.47896 | 39203 ft | 543 kts | 86° |
| 2026-04-21 21:05 | 27.52443 | -133.39447 | 39204 ft | 542 kts | 86° |
| 2026-04-21 21:05 | 27.53221 | -133.31004 | 39203 ft | 542 kts | 86° |
| 2026-04-21 21:06 | 27.53994 | -133.22565 | 39204 ft | 541 kts | 86° |
| 2026-04-21 21:06 | 27.54760 | -133.14128 | 39204 ft | 541 kts | 86° |
| 2026-04-21 21:07 | 27.55522 | -133.05694 | 39206 ft | 541 kts | 86° |
| 2026-04-21 21:07 | 27.56279 | -132.97252 | 39202 ft | 542 kts | 86° |
| 2026-04-21 21:08 | 27.57026 | -132.88864 | 39192 ft | 541 kts | 86° |
| 2026-04-21 21:08 | 27.57773 | -132.80423 | 39204 ft | 541 kts | 86° |
| 2026-04-21 21:09 | 27.58515 | -132.71977 | 39199 ft | 541 kts | 86° |
| 2026-04-21 21:09 | 27.59251 | -132.63534 | 39196 ft | 541 kts | 86° |
| 2026-04-21 21:10 | 27.59982 | -132.55086 | 39197 ft | 541 kts | 86° |
| 2026-04-21 21:10 | 27.60708 | -132.46643 | 39204 ft | 541 kts | 86° |
| 2026-04-21 21:11 | 27.61430 | -132.38191 | 39203 ft | 542 kts | 86° |
| 2026-04-21 21:11 | 27.62146 | -132.29731 | 39199 ft | 542 kts | 86° |
| 2026-04-21 21:12 | 27.62859 | -132.21262 | 39196 ft | 543 kts | 86° |
| 2026-04-21 21:12 | 27.63567 | -132.12788 | 39197 ft | 542 kts | 86° |
| 2026-04-21 21:13 | 27.64269 | -132.04320 | 39191 ft | 542 kts | 86° |
| 2026-04-21 21:13 | 27.64965 | -131.95858 | 39196 ft | 542 kts | 86° |
| 2026-04-21 21:14 | 27.65657 | -131.87385 | 39194 ft | 542 kts | 86° |
| 2026-04-21 21:14 | 27.66344 | -131.78908 | 39195 ft | 543 kts | 86° |
| 2026-04-21 21:15 | 27.67025 | -131.70434 | 39193 ft | 543 kts | 86° |
| 2026-04-21 21:15 | 27.67703 | -131.61942 | 39198 ft | 543 kts | 86° |
| 2026-04-21 21:16 | 27.68375 | -131.53451 | 39197 ft | 544 kts | 86° |
| 2026-04-21 21:16 | 27.69043 | -131.44948 | 39191 ft | 544 kts | 86° |
| 2026-04-21 21:17 | 27.69706 | -131.36437 | 39182 ft | 544 kts | 86° |
| 2026-04-21 21:17 | 27.70363 | -131.27937 | 39196 ft | 544 kts | 86° |
| 2026-04-21 21:18 | 27.71015 | -131.19450 | 39187 ft | 540 kts | 86° |
| 2026-04-21 21:18 | 27.71650 | -131.11114 | 39193 ft | 536 kts | 86° |
| 2026-04-21 21:19 | 27.72282 | -131.02721 | 39197 ft | 538 kts | 86° |
| 2026-04-21 21:19 | 27.72912 | -130.94301 | 39203 ft | 539 kts | 86° |
| 2026-04-21 21:20 | 27.73539 | -130.85857 | 39189 ft | 540 kts | 86° |
| 2026-04-21 21:20 | 27.74162 | -130.77392 | 39196 ft | 541 kts | 86° |
| 2026-04-21 21:21 | 27.74781 | -130.68923 | 39190 ft | 541 kts | 86° |
| 2026-04-21 21:21 | 27.75395 | -130.60453 | 39172 ft | 541 kts | 86° |
| 2026-04-21 21:22 | 27.76001 | -130.52011 | 39178 ft | 539 kts | 86° |
| 2026-04-21 21:22 | 27.76503 | -130.44953 | 39180 ft | 538 kts | 86° |
| 2026-04-21 21:23 | 27.77193 | -130.35184 | 39184 ft | 537 kts | 86° |
| 2026-04-21 21:23 | 27.77681 | -130.28204 | 39193 ft | 537 kts | 86° |
| 2026-04-21 21:24 | 27.78265 | -130.19800 | 39183 ft | 537 kts | 86° |
| 2026-04-21 21:24 | 27.78844 | -130.11380 | 39193 ft | 538 kts | 86° |
| 2026-04-21 21:25 | 27.79420 | -130.02939 | 39208 ft | 540 kts | 86° |
| 2026-04-21 21:25 | 27.79991 | -129.94477 | 39190 ft | 541 kts | 86° |
| 2026-04-21 21:26 | 27.80560 | -129.85998 | 39187 ft | 542 kts | 86° |
| 2026-04-21 21:26 | 27.81124 | -129.77506 | 39181 ft | 542 kts | 86° |
| 2026-04-21 21:27 | 27.81681 | -129.69026 | 39187 ft | 541 kts | 86° |
| 2026-04-21 21:27 | 27.82232 | -129.60560 | 39181 ft | 540 kts | 86° |
| 2026-04-21 21:28 | 27.82777 | -129.52103 | 39190 ft | 540 kts | 86° |
| 2026-04-21 21:29 | 27.83586 | -129.39412 | 39183 ft | 540 kts | 86° |
| 2026-04-21 21:29 | 27.84119 | -129.30952 | 39190 ft | 540 kts | 86° |
| 2026-04-21 21:30 | 27.84647 | -129.22478 | 39190 ft | 541 kts | 86° |
| 2026-04-21 21:30 | 27.85171 | -129.13986 | 39182 ft | 542 kts | 86° |
| 2026-04-21 21:31 | 27.85691 | -129.05486 | 39186 ft | 543 kts | 86° |
| 2026-04-21 21:31 | 27.86207 | -128.96963 | 39156 ft | 544 kts | 87° |
| 2026-04-21 21:32 | 27.86713 | -128.88511 | 39175 ft | 542 kts | 86° |
| 2026-04-21 21:32 | 27.87216 | -128.80006 | 39173 ft | 542 kts | 86° |
| 2026-04-21 21:33 | 27.87715 | -128.71509 | 39186 ft | 542 kts | 87° |
| 2026-04-21 21:33 | 27.88207 | -128.63019 | 39191 ft | 541 kts | 86° |
| 2026-04-21 21:34 | 27.88695 | -128.54520 | 39183 ft | 542 kts | 86° |
| 2026-04-21 21:34 | 27.89178 | -128.46016 | 39178 ft | 543 kts | 86° |
| 2026-04-21 21:35 | 27.89656 | -128.37499 | 39183 ft | 543 kts | 86° |
| 2026-04-21 21:35 | 27.90130 | -128.28974 | 39183 ft | 543 kts | 87° |
| 2026-04-21 21:36 | 27.90598 | -128.20448 | 39174 ft | 544 kts | 87° |
| 2026-04-21 21:36 | 27.91062 | -128.11913 | 39160 ft | 544 kts | 87° |
| 2026-04-21 21:37 | 27.91876 | -128.03443 | 39167 ft | 540 kts | 72° |
| 2026-04-21 21:37 | 27.93124 | -127.99467 | 39190 ft | 534 kts | 60° |
| 2026-04-21 21:37 | 27.94868 | -127.95796 | 39177 ft | 527 kts | 50° |
| 2026-04-21 21:37 | 27.97081 | -127.92560 | 39181 ft | 515 kts | 41° |
| 2026-04-21 21:38 | 27.99420 | -127.89558 | 39201 ft | 516 kts | 40° |
| 2026-04-21 21:38 | 28.04204 | -127.83460 | 39189 ft | 520 kts | 40° |
| 2026-04-21 21:39 | 28.08971 | -127.77276 | 39190 ft | 523 kts | 41° |
| 2026-04-21 21:39 | 28.13720 | -127.71019 | 39193 ft | 524 kts | 41° |
| 2026-04-21 21:40 | 28.18461 | -127.64735 | 39181 ft | 525 kts | 41° |
| 2026-04-21 21:40 | 28.23198 | -127.58450 | 39172 ft | 524 kts | 41° |
| 2026-04-21 21:41 | 28.27925 | -127.52176 | 39173 ft | 522 kts | 41° |
| 2026-04-21 21:41 | 28.32637 | -127.45916 | 39183 ft | 521 kts | 41° |
| 2026-04-21 21:42 | 28.37342 | -127.39659 | 39177 ft | 521 kts | 41° |
| 2026-04-21 21:42 | 28.42047 | -127.33395 | 39178 ft | 522 kts | 41° |
| 2026-04-21 21:43 | 28.46763 | -127.27104 | 39175 ft | 524 kts | 41° |
| 2026-04-21 21:43 | 28.51490 | -127.20786 | 39186 ft | 525 kts | 41° |
| 2026-04-21 21:44 | 28.56227 | -127.14447 | 39176 ft | 527 kts | 41° |
| 2026-04-21 21:44 | 28.60969 | -127.08089 | 39174 ft | 527 kts | 41° |
| 2026-04-21 21:45 | 28.65711 | -127.01721 | 39177 ft | 527 kts | 41° |
| 2026-04-21 21:45 | 28.70446 | -126.95352 | 39183 ft | 527 kts | 41° |
| 2026-04-21 21:46 | 28.75144 | -126.89026 | 39168 ft | 526 kts | 41° |
| 2026-04-21 21:46 | 28.79863 | -126.82661 | 39191 ft | 525 kts | 40° |
| 2026-04-21 21:47 | 28.84575 | -126.76297 | 39171 ft | 524 kts | 40° |
| 2026-04-21 21:47 | 28.89271 | -126.69943 | 39178 ft | 523 kts | 40° |
| 2026-04-21 21:48 | 28.93957 | -126.63594 | 39171 ft | 522 kts | 40° |
| 2026-04-21 21:48 | 28.98635 | -126.57247 | 39172 ft | 522 kts | 40° |
| 2026-04-21 21:49 | 29.03306 | -126.50900 | 39171 ft | 522 kts | 40° |
| 2026-04-21 21:49 | 29.07972 | -126.44549 | 39175 ft | 522 kts | 40° |
| 2026-04-21 21:50 | 29.12643 | -126.38181 | 39170 ft | 522 kts | 41° |
| 2026-04-21 21:50 | 29.17311 | -126.31807 | 39172 ft | 523 kts | 41° |
| 2026-04-21 21:51 | 29.21974 | -126.25428 | 39204 ft | 523 kts | 41° |
| 2026-04-21 21:51 | 29.26641 | -126.19036 | 39170 ft | 522 kts | 41° |
| 2026-04-21 21:52 | 29.31294 | -126.12654 | 39168 ft | 521 kts | 41° |
| 2026-04-21 21:52 | 29.35928 | -126.06285 | 39160 ft | 520 kts | 41° |
| 2026-04-21 21:53 | 29.40551 | -125.99923 | 39165 ft | 519 kts | 41° |
| 2026-04-21 21:53 | 29.45165 | -125.93565 | 39166 ft | 519 kts | 41° |
| 2026-04-21 21:54 | 29.49778 | -125.87199 | 39170 ft | 519 kts | 41° |
| 2026-04-21 21:54 | 29.54396 | -125.80815 | 39168 ft | 520 kts | 41° |
| 2026-04-21 21:55 | 29.59021 | -125.74412 | 39175 ft | 521 kts | 41° |
| 2026-04-21 21:55 | 29.63645 | -125.67997 | 39175 ft | 522 kts | 42° |
| 2026-04-21 21:56 | 29.68273 | -125.61567 | 39162 ft | 521 kts | 42° |
| 2026-04-21 21:56 | 29.72883 | -125.55150 | 39159 ft | 520 kts | 42° |
| 2026-04-21 21:57 | 29.77482 | -125.48741 | 39179 ft | 519 kts | 42° |
| 2026-04-21 21:57 | 29.82038 | -125.42383 | 39164 ft | 518 kts | 42° |
| 2026-04-21 21:58 | 29.86614 | -125.35985 | 39158 ft | 517 kts | 42° |
| 2026-04-21 21:58 | 29.91178 | -125.29594 | 39163 ft | 516 kts | 42° |
| 2026-04-21 21:59 | 29.95742 | -125.23194 | 39174 ft | 516 kts | 43° |
| 2026-04-21 21:59 | 30.00301 | -125.16791 | 39161 ft | 517 kts | 43° |
| 2026-04-21 22:00 | 30.04863 | -125.10372 | 39170 ft | 517 kts | 43° |
| 2026-04-21 22:00 | 30.09420 | -125.03950 | 39160 ft | 517 kts | 43° |
| 2026-04-21 22:01 | 30.13975 | -124.97521 | 39170 ft | 517 kts | 43° |
| 2026-04-21 22:01 | 30.18518 | -124.91098 | 39157 ft | 516 kts | 43° |
| 2026-04-21 22:02 | 30.23055 | -124.84673 | 39156 ft | 515 kts | 43° |
| 2026-04-21 22:02 | 30.27582 | -124.78251 | 39157 ft | 515 kts | 43° |
| 2026-04-21 22:03 | 30.32100 | -124.71832 | 39170 ft | 514 kts | 43° |
| 2026-04-21 22:03 | 30.36615 | -124.65409 | 39156 ft | 514 kts | 43° |
| 2026-04-21 22:04 | 30.41127 | -124.58979 | 39154 ft | 514 kts | 43° |
| 2026-04-21 22:04 | 30.45634 | -124.52544 | 39166 ft | 515 kts | 44° |
| 2026-04-21 22:05 | 30.50138 | -124.46104 | 39170 ft | 514 kts | 44° |
| 2026-04-21 22:05 | 30.54639 | -124.39658 | 39155 ft | 514 kts | 44° |
| 2026-04-21 22:06 | 30.59127 | -124.33219 | 39149 ft | 513 kts | 44° |
| 2026-04-21 22:06 | 30.63573 | -124.26829 | 39148 ft | 512 kts | 44° |
| 2026-04-21 22:07 | 30.68051 | -124.20388 | 39163 ft | 515 kts | 44° |
| 2026-04-21 22:07 | 30.72577 | -124.13870 | 39160 ft | 521 kts | 44° |
| 2026-04-21 22:08 | 30.77133 | -124.07291 | 39157 ft | 524 kts | 44° |
| 2026-04-21 22:08 | 30.81697 | -124.00684 | 39149 ft | 524 kts | 44° |
| 2026-04-21 22:09 | 30.86249 | -123.94083 | 39172 ft | 522 kts | 45° |
| 2026-04-21 22:09 | 30.90781 | -123.87505 | 39144 ft | 519 kts | 45° |
| 2026-04-21 22:10 | 30.95284 | -123.80958 | 39137 ft | 517 kts | 45° |
| 2026-04-21 22:10 | 30.99766 | -123.74432 | 39138 ft | 515 kts | 45° |
| 2026-04-21 22:11 | 31.04233 | -123.67915 | 39149 ft | 514 kts | 45° |
| 2026-04-21 22:11 | 31.08705 | -123.61384 | 39144 ft | 516 kts | 45° |
| 2026-04-21 22:12 | 31.12080 | -123.55597 | 39139 ft | 525 kts | 58° |
| 2026-04-21 22:12 | 31.14836 | -123.47645 | 39137 ft | 534 kts | 73° |
| 2026-04-21 22:13 | 31.16548 | -123.39199 | 39148 ft | 535 kts | 76° |
| 2026-04-21 22:13 | 31.18187 | -123.30713 | 39147 ft | 536 kts | 76° |
| 2026-04-21 22:14 | 31.19880 | -123.22221 | 39140 ft | 537 kts | 75° |
| 2026-04-21 22:14 | 31.21607 | -123.13735 | 39141 ft | 537 kts | 75° |
| 2026-04-21 22:15 | 31.23334 | -123.05265 | 39135 ft | 536 kts | 75° |
| 2026-04-21 22:15 | 31.25049 | -122.96802 | 39134 ft | 534 kts | 75° |
| 2026-04-21 22:16 | 31.26751 | -122.88358 | 39136 ft | 533 kts | 75° |
| 2026-04-21 22:16 | 31.28443 | -122.79930 | 39134 ft | 532 kts | 75° |
| 2026-04-21 22:17 | 31.30129 | -122.71504 | 39133 ft | 532 kts | 75° |
| 2026-04-21 22:17 | 31.31807 | -122.63088 | 39132 ft | 532 kts | 75° |
| 2026-04-21 22:18 | 31.33468 | -122.54722 | 39137 ft | 531 kts | 76° |
| 2026-04-21 22:18 | 31.35135 | -122.46300 | 39134 ft | 531 kts | 76° |
| 2026-04-21 22:19 | 31.36797 | -122.37873 | 39132 ft | 532 kts | 76° |
| 2026-04-21 22:19 | 31.38453 | -122.29444 | 39132 ft | 532 kts | 76° |
| 2026-04-21 22:20 | 31.40105 | -122.21007 | 39129 ft | 532 kts | 76° |
| 2026-04-21 22:20 | 31.41749 | -122.12572 | 39130 ft | 532 kts | 76° |
| 2026-04-21 22:21 | 31.43389 | -122.04132 | 39139 ft | 531 kts | 76° |
| 2026-04-21 22:21 | 31.45022 | -121.95697 | 39135 ft | 531 kts | 76° |
| 2026-04-21 22:22 | 31.46648 | -121.87263 | 39126 ft | 531 kts | 76° |
| 2026-04-21 22:22 | 31.48268 | -121.78836 | 39129 ft | 530 kts | 76° |
| 2026-04-21 22:23 | 31.49879 | -121.70417 | 39127 ft | 529 kts | 76° |
| 2026-04-21 22:23 | 31.51484 | -121.61998 | 39128 ft | 529 kts | 76° |
| 2026-04-21 22:24 | 31.53080 | -121.53595 | 39121 ft | 528 kts | 76° |
| 2026-04-21 22:24 | 31.54668 | -121.45204 | 39126 ft | 527 kts | 77° |
| 2026-04-21 22:25 | 31.56379 | -121.36857 | 39120 ft | 525 kts | 69° |
| 2026-04-21 22:25 | 31.59056 | -121.28922 | 39133 ft | 523 kts | 63° |
| 2026-04-21 22:26 | 31.61967 | -121.21156 | 39135 ft | 524 kts | 64° |
| 2026-04-21 22:26 | 31.64799 | -121.13272 | 39160 ft | 525 kts | 65° |
| 2026-04-21 22:27 | 31.67547 | -121.05315 | 39129 ft | 526 kts | 66° |
| 2026-04-21 22:27 | 31.70274 | -120.97332 | 39126 ft | 527 kts | 66° |
| 2026-04-21 22:28 | 31.72998 | -120.89367 | 39133 ft | 524 kts | 66° |
| 2026-04-21 22:28 | 31.75709 | -120.81439 | 39120 ft | 521 kts | 66° |
| 2026-04-21 22:29 | 31.78402 | -120.73549 | 39103 ft | 519 kts | 66° |
| 2026-04-21 22:29 | 31.81078 | -120.65692 | 39119 ft | 517 kts | 66° |
| 2026-04-21 22:30 | 31.83744 | -120.57842 | 39118 ft | 517 kts | 66° |
| 2026-04-21 22:30 | 31.86408 | -120.49980 | 39123 ft | 518 kts | 66° |
| 2026-04-21 22:31 | 31.89074 | -120.42093 | 39125 ft | 519 kts | 66° |
| 2026-04-21 22:31 | 31.91741 | -120.34186 | 39120 ft | 520 kts | 67° |
| 2026-04-21 22:32 | 31.94589 | -120.26364 | 39109 ft | 517 kts | 55° |
| 2026-04-21 22:32 | 31.96784 | -120.23094 | 39126 ft | 505 kts | 41° |
| 2026-04-21 22:32 | 31.99199 | -120.20171 | 39127 ft | 505 kts | 40° |
| 2026-04-21 22:33 | 32.04130 | -120.14252 | 39121 ft | 507 kts | 41° |
| 2026-04-21 22:33 | 32.09009 | -120.08211 | 39115 ft | 510 kts | 42° |
| 2026-04-21 22:34 | 32.13878 | -120.02050 | 39116 ft | 511 kts | 42° |
| 2026-04-21 22:34 | 32.18713 | -119.95903 | 39114 ft | 511 kts | 42° |
| 2026-04-21 22:35 | 32.23544 | -119.89762 | 39111 ft | 510 kts | 42° |
| 2026-04-21 22:35 | 32.28337 | -119.83667 | 39110 ft | 509 kts | 42° |
| 2026-04-21 22:36 | 32.35552 | -119.74475 | 39110 ft | 508 kts | 43° |
| 2026-04-21 22:36 | 32.40353 | -119.68342 | 39112 ft | 508 kts | 43° |
| 2026-04-21 22:37 | 32.45146 | -119.62212 | 39110 ft | 507 kts | 43° |
| 2026-04-21 22:37 | 32.47543 | -119.59144 | 38954 ft | 508 kts | 43° |
| 2026-04-21 22:37 | 32.49936 | -119.56075 | 38447 ft | 506 kts | 43° |
| 2026-04-21 22:38 | 32.52351 | -119.52983 | 37309 ft | 517 kts | 43° |
| 2026-04-21 22:38 | 32.54824 | -119.49819 | 36158 ft | 530 kts | 43° |
| 2026-04-21 22:38 | 32.57363 | -119.46563 | 34942 ft | 544 kts | 43° |
| 2026-04-21 22:38 | 32.59953 | -119.43236 | 33805 ft | 554 kts | 43° |
| 2026-04-21 22:39 | 32.62582 | -119.39850 | 32663 ft | 561 kts | 44° |
| 2026-04-21 22:39 | 32.65231 | -119.36432 | 31628 ft | 565 kts | 44° |
| 2026-04-21 22:39 | 32.67894 | -119.32990 | 30696 ft | 566 kts | 44° |
| 2026-04-21 22:39 | 32.70549 | -119.29555 | 29981 ft | 562 kts | 44° |
| 2026-04-21 22:40 | 32.73176 | -119.26152 | 29395 ft | 554 kts | 44° |
| 2026-04-21 22:40 | 32.75759 | -119.22807 | 28867 ft | 543 kts | 44° |
| 2026-04-21 22:40 | 32.78237 | -119.19589 | 27793 ft | 516 kts | 44° |
| 2026-04-21 22:40 | 32.80631 | -119.16480 | 26393 ft | 509 kts | 44° |
| 2026-04-21 22:41 | 32.83035 | -119.13367 | 25654 ft | 510 kts | 44° |
| 2026-04-21 22:41 | 32.85430 | -119.10264 | 24988 ft | 508 kts | 44° |
| 2026-04-21 22:41 | 32.87810 | -119.07175 | 24307 ft | 505 kts | 44° |
| 2026-04-21 22:41 | 32.90175 | -119.04102 | 23660 ft | 503 kts | 44° |
| 2026-04-21 22:42 | 32.92529 | -119.01040 | 22851 ft | 500 kts | 44° |
| 2026-04-21 22:42 | 32.94869 | -118.97992 | 22146 ft | 496 kts | 44° |
| 2026-04-21 22:42 | 32.97180 | -118.94978 | 21470 ft | 491 kts | 44° |
| 2026-04-21 22:42 | 32.99473 | -118.91986 | 20817 ft | 486 kts | 44° |
| 2026-04-21 22:43 | 33.01740 | -118.89024 | 20179 ft | 482 kts | 44° |
| 2026-04-21 22:43 | 33.03990 | -118.86083 | 19543 ft | 478 kts | 44° |
| 2026-04-21 22:43 | 33.06218 | -118.83168 | 18899 ft | 474 kts | 44° |
| 2026-04-21 22:43 | 33.08405 | -118.80304 | 18213 ft | 457 kts | 44° |
| 2026-04-21 22:44 | 33.10492 | -118.77563 | 17537 ft | 435 kts | 44° |
| 2026-04-21 22:44 | 33.12501 | -118.74929 | 16872 ft | 428 kts | 44° |
| 2026-04-21 22:44 | 33.14476 | -118.72344 | 16335 ft | 427 kts | 44° |
| 2026-04-21 22:44 | 33.16452 | -118.69753 | 16149 ft | 416 kts | 44° |
| 2026-04-21 22:45 | 33.18373 | -118.67227 | 16003 ft | 406 kts | 44° |
| 2026-04-21 22:45 | 33.20222 | -118.64724 | 15899 ft | 398 kts | 46° |
| 2026-04-21 22:45 | 33.22002 | -118.62217 | 15809 ft | 394 kts | 47° |
| 2026-04-21 22:45 | 33.23763 | -118.59716 | 15689 ft | 393 kts | 47° |
| 2026-04-21 22:46 | 33.25527 | -118.57215 | 15586 ft | 394 kts | 46° |
| 2026-04-21 22:46 | 33.27303 | -118.54709 | 15494 ft | 398 kts | 46° |
| 2026-04-21 22:46 | 33.29101 | -118.52180 | 15404 ft | 400 kts | 46° |
| 2026-04-21 22:46 | 33.30898 | -118.49651 | 15309 ft | 398 kts | 46° |
| 2026-04-21 22:47 | 33.32656 | -118.47117 | 15177 ft | 391 kts | 52° |
| 2026-04-21 22:47 | 33.33843 | -118.44191 | 15090 ft | 397 kts | 75° |
| 2026-04-21 22:47 | 33.34153 | -118.40912 | 14995 ft | 395 kts | 95° |
| 2026-04-21 22:47 | 33.33954 | -118.37637 | 14906 ft | 396 kts | 97° |
| 2026-04-21 22:48 | 33.33730 | -118.34348 | 14801 ft | 396 kts | 97° |
| 2026-04-21 22:48 | 33.33519 | -118.31089 | 14671 ft | 391 kts | 97° |
| 2026-04-21 22:48 | 33.33322 | -118.27865 | 14573 ft | 386 kts | 97° |
| 2026-04-21 22:48 | 33.33134 | -118.24663 | 14459 ft | 386 kts | 96° |
| 2026-04-21 22:49 | 33.32950 | -118.21457 | 14361 ft | 387 kts | 96° |
| 2026-04-21 22:49 | 33.32767 | -118.18240 | 14264 ft | 388 kts | 96° |
| 2026-04-21 22:49 | 33.32584 | -118.15014 | 14166 ft | 389 kts | 96° |
| 2026-04-21 22:49 | 33.32563 | -118.11819 | 14031 ft | 384 kts | 82° |
| 2026-04-21 22:50 | 33.33401 | -118.08783 | 13751 ft | 389 kts | 60° |
| 2026-04-21 22:50 | 33.35040 | -118.06227 | 13249 ft | 384 kts | 43° |
| 2026-04-21 22:50 | 33.36936 | -118.03998 | 12797 ft | 381 kts | 43° |
| 2026-04-21 22:50 | 33.38815 | -118.01794 | 12326 ft | 371 kts | 38° |
| 2026-04-21 22:51 | 33.41000 | -118.00275 | 11912 ft | 360 kts | 14° |
| 2026-04-21 22:51 | 33.43419 | -117.99742 | 11514 ft | 350 kts | 356° |
| 2026-04-21 22:51 | 33.45832 | -117.99817 | 11152 ft | 345 kts | 352° |
| 2026-04-21 22:51 | 33.48211 | -117.99968 | 10783 ft | 335 kts | 352° |
| 2026-04-21 22:52 | 33.50455 | -118.00104 | 10359 ft | 311 kts | 352° |
| 2026-04-21 22:52 | 33.52560 | -118.00222 | 10025 ft | 300 kts | 352° |
| 2026-04-21 22:52 | 33.54651 | -118.00334 | 9660 ft | 301 kts | 352° |
| 2026-04-21 22:52 | 33.56740 | -118.00439 | 9288 ft | 300 kts | 352° |
| 2026-04-21 22:53 | 33.58825 | -118.00540 | 8949 ft | 299 kts | 353° |
| 2026-04-21 22:53 | 33.60899 | -118.00634 | 8600 ft | 297 kts | 353° |
| 2026-04-21 22:53 | 33.62956 | -118.00724 | 8274 ft | 295 kts | 353° |
| 2026-04-21 22:53 | 33.64994 | -118.00847 | 7978 ft | 287 kts | 347° |
| 2026-04-21 22:54 | 33.66890 | -118.01352 | 7831 ft | 275 kts | 338° |
| 2026-04-21 22:54 | 33.68707 | -118.02033 | 7708 ft | 273 kts | 337° |
| 2026-04-21 22:54 | 33.70519 | -118.02722 | 7552 ft | 273 kts | 337° |
| 2026-04-21 22:54 | 33.72337 | -118.03385 | 7440 ft | 273 kts | 338° |
| 2026-04-21 22:55 | 33.74141 | -118.04019 | 7316 ft | 267 kts | 338° |
| 2026-04-21 22:55 | 33.75901 | -118.04628 | 7149 ft | 259 kts | 338° |
| 2026-04-21 22:55 | 33.77610 | -118.05219 | 7007 ft | 252 kts | 338° |
| 2026-04-21 22:55 | 33.79256 | -118.05858 | 6756 ft | 246 kts | 333° |
| 2026-04-21 22:56 | 33.80814 | -118.06614 | 6493 ft | 245 kts | 332° |
| 2026-04-21 22:56 | 33.82390 | -118.07398 | 6222 ft | 246 kts | 334° |
| 2026-04-21 22:56 | 33.83992 | -118.08170 | 5930 ft | 249 kts | 333° |
| 2026-04-21 22:56 | 33.85578 | -118.08935 | 5673 ft | 245 kts | 333° |
| 2026-04-21 22:57 | 33.87164 | -118.09704 | 5350 ft | 245 kts | 334° |
| 2026-04-21 22:57 | 33.88724 | -118.10456 | 5032 ft | 237 kts | 334° |
| 2026-04-21 22:57 | 33.90288 | -118.10908 | 4748 ft | 228 kts | 351° |
| 2026-04-21 22:57 | 33.91835 | -118.11002 | 4577 ft | 219 kts | 355° |
| 2026-04-21 22:58 | 33.93154 | -118.11180 | 4347 ft | 202 kts | 329° |
| 2026-04-21 22:58 | 33.94206 | -118.12129 | 4207 ft | 186 kts | 311° |
| 2026-04-21 22:58 | 33.95223 | -118.13161 | 4015 ft | 193 kts | 310° |
| 2026-04-21 22:58 | 33.95874 | -118.14483 | 3806 ft | 181 kts | 274° |
| 2026-04-21 22:59 | 33.95882 | -118.15962 | 3659 ft | 179 kts | 265° |
| 2026-04-21 22:59 | 33.95829 | -118.17470 | 3406 ft | 179 kts | 263° |
| 2026-04-21 22:59 | 33.95715 | -118.18947 | 3167 ft | 175 kts | 261° |
| 2026-04-21 22:59 | 33.95576 | -118.20393 | 2946 ft | 173 kts | 259° |
| 2026-04-21 23:00 | 33.95429 | -118.21823 | 2723 ft | 170 kts | 259° |
| 2026-04-21 23:00 | 33.95333 | -118.22752 | 2569 ft | 166 kts | 260° |
| 2026-04-21 23:00 | 33.95197 | -118.24092 | 2386 ft | 159 kts | 259° |
| 2026-04-21 23:00 | 33.95063 | -118.25401 | 2180 ft | 157 kts | 258° |
| 2026-04-21 23:01 | 33.94927 | -118.26705 | 2022 ft | 157 kts | 259° |
| 2026-04-21 23:01 | 33.94792 | -118.28013 | 1822 ft | 157 kts | 260° |
| 2026-04-21 23:01 | 33.94668 | -118.29241 | 1600 ft | 140 kts | 259° |
| 2026-04-21 23:01 | 33.94552 | -118.30365 | 1425 ft | 130 kts | 261° |
| 2026-04-21 23:02 | 33.94439 | -118.31390 | 1264 ft | 120 kts | 259° |
| 2026-04-21 23:02 | 33.94328 | -118.32427 | 1128 ft | 126 kts | 264° |
| 2026-04-21 23:02 | 33.94235 | -118.33465 | 965 ft | 125 kts | 258° |
| 2026-04-21 23:02 | 33.94111 | -118.34524 | 728 ft | 129 kts | 263° |
| 2026-04-21 23:03 | 33.94012 | -118.35562 | 602 ft | 122 kts | 264° |
| 2026-04-21 23:03 | 33.93905 | -118.36587 | 407 ft | 125 kts | 263° |
| 2026-04-21 23:03 | 33.93804 | -118.37624 | 238 ft | 124 kts | 259° |
| 2026-04-21 23:03 | 33.93699 | -118.38670 | 107 ft | 126 kts | 259° |
| 2026-04-21 23:04 | 33.93605 | -118.39576 | 100 ft | 87 kts | 263° |
| 2026-04-21 23:04 | 33.93564 | -118.40105 | 100 ft | 39 kts | 277° |
| 2026-04-21 23:04 | 33.93618 | -118.40346 | 100 ft | 23 kts | 285° |
| 2026-04-21 23:04 | 33.93617 | -118.40537 | 99 ft | 23 kts | 263° |
| 2026-04-21 23:05 | 33.93598 | -118.40698 | 99 ft | 10 kts | 262° |
| 2026-04-21 23:05 | 33.93594 | -118.40777 | 98 ft | 8 kts | 272° |
| 2026-04-21 23:05 | 33.93613 | -118.40860 | 101 ft | 16 kts | 303° |
| 2026-04-21 23:05 | 33.93728 | -118.40907 | 100 ft | 15 kts | 353° |
| 2026-04-21 23:06 | 33.93788 | -118.40914 | 99 ft | 9 kts | 355° |
| 2026-04-21 23:06 | 33.93856 | -118.40911 | 98 ft | 9 kts | 31° |
| 2026-04-21 23:06 | 33.93880 | -118.40807 | 97 ft | 20 kts | 83° |
| 2026-04-21 23:06 | 33.93897 | -118.40639 | 101 ft | 20 kts | 83° |
| 2026-04-21 23:07 | 33.93914 | -118.40470 | 98 ft | 20 kts | 83° |
| 2026-04-21 23:07 | 33.93931 | -118.40302 | 98 ft | 20 kts | 83° |
| 2026-04-21 23:07 | 33.93948 | -118.40134 | 98 ft | 20 kts | 83° |
| 2026-04-21 23:07 | 33.93965 | -118.39973 | 101 ft | 18 kts | 84° |
| 2026-04-21 23:08 | 33.93978 | -118.39852 | 99 ft | 11 kts | 72° |
| 2026-04-21 23:08 | 33.94041 | -118.39826 | 98 ft | 10 kts | 2° |
| 2026-04-21 23:08 | 33.94087 | -118.39864 | 99 ft | 8 kts | 308° |
| 2026-04-21 23:08 | 33.94101 | -118.39887 | 101 ft | 2 kts | 306° |
| 2026-04-21 23:09 | 33.94105 | -118.39894 | 100 ft | 0 kts | 306° |
| 2026-04-21 23:09 | 33.94106 | -118.39895 | 100 ft | 0 kts | 306° |